Terminal Aerodrome Forecast
Issued by NWS Charleston, WV

Home | Current Version | Previous Version | Text Only | Print | Product List | Glossary On
Versions: 1 2 3 4 5 6 7 8 9 10 11 12 13 14 15 16 17 18 19 20 21
000
FTUS41 KRLX 270246 AAA
TAFHTS
TAF AMD
KHTS 270246Z 2703/2724 VRB02KT P6SM SCT250
     FM271200 22005KT P6SM -SHRA VCTS BKN023CB
     FM272000 25005KT P6SM SHRA VCTS BKN035CB=

USA.gov is the U.S. government's official web portal to all federal, state and local government web resources and services.